createdAt,value
2023-03-19T00:00:45.162Z,73.93
2023-03-19T00:01:40.486Z,73.92
2023-03-19T00:02:35.562Z,73.86
2023-03-19T00:03:30.788Z,73.81
2023-03-19T00:04:25.920Z,73.84
2023-03-19T00:05:20.982Z,73.83
2023-03-19T00:06:16.489Z,73.82
2023-03-19T00:07:11.520Z,73.76
2023-03-19T00:08:06.644Z,73.73
2023-03-19T00:09:01.854Z,73.65
2023-03-19T00:09:56.981Z,73.71
2023-03-19T00:10:52.206Z,73.68
2023-03-19T00:11:47.318Z,73.59
2023-03-19T00:12:42.288Z,73.57
2023-03-19T00:13:37.403Z,73.61
2023-03-19T00:14:32.572Z,73.63
2023-03-19T00:15:27.811Z,73.61
2023-03-19T00:16:23.276Z,73.69
2023-03-19T00:17:18.094Z,73.56
2023-03-19T00:18:13.329Z,73.57
2023-03-19T00:19:08.468Z,73.63
2023-03-19T00:20:03.568Z,73.71
2023-03-19T00:20:59.001Z,73.67
2023-03-19T00:21:53.958Z,73.64
2023-03-19T00:22:49.216Z,73.67
2023-03-19T00:23:44.343Z,73.63
2023-03-19T00:24:39.482Z,73.65
2023-03-19T00:25:34.820Z,73.59
2023-03-19T00:26:29.934Z,73.60
2023-03-19T00:27:24.891Z,73.63
2023-03-19T00:28:20.265Z,73.56
2023-03-19T00:29:15.347Z,73.53
2023-03-19T00:30:10.463Z,73.51
2023-03-19T00:31:05.608Z,73.50
2023-03-19T00:32:00.696Z,73.46
2023-03-19T00:32:55.831Z,73.51
2023-03-19T00:33:50.815Z,73.58
2023-03-19T00:34:45.892Z,73.55
2023-03-19T00:35:41.204Z,73.59
2023-03-19T00:36:36.292Z,73.47
2023-03-19T00:37:31.514Z,73.43
2023-03-19T00:38:26.629Z,73.44
2023-03-19T00:39:21.885Z,73.48
2023-03-19T00:40:17.153Z,73.52
2023-03-19T00:41:12.140Z,73.53
2023-03-19T00:42:07.257Z,73.57
2023-03-19T00:43:02.518Z,73.54
2023-03-19T00:43:57.654Z,73.52
2023-03-19T00:44:52.918Z,73.54
2023-03-19T00:45:48.152Z,73.53
2023-03-19T00:46:43.196Z,73.44
2023-03-19T00:47:38.293Z,73.36
2023-03-19T00:48:33.556Z,73.19
2023-03-19T00:49:28.788Z,73.07
2023-03-19T00:50:24.031Z,73.09
2023-03-19T00:51:18.955Z,73.01
2023-03-19T00:52:14.132Z,72.95
2023-03-19T00:53:09.363Z,72.90
2023-03-19T00:54:04.572Z,72.75
2023-03-19T00:54:59.897Z,72.62
2023-03-19T00:55:54.922Z,72.56
2023-03-19T00:56:50.060Z,72.54
2023-03-19T00:57:45.215Z,72.52
2023-03-19T00:58:40.153Z,72.42
2023-03-19T00:59:35.383Z,72.37
2023-03-19T01:00:30.213Z,72.14
2023-03-19T01:01:25.475Z,72.07
2023-03-19T01:02:20.438Z,72.04
2023-03-19T01:03:15.501Z,72.04
2023-03-19T01:04:10.677Z,71.89
2023-03-19T01:05:05.553Z,71.82
2023-03-19T01:06:00.511Z,71.74
2023-03-19T01:06:55.635Z,71.67
2023-03-19T01:07:50.630Z,71.55
2023-03-19T01:08:45.791Z,71.45
2023-03-19T01:09:40.948Z,71.37
2023-03-19T01:10:35.930Z,71.38
2023-03-19T01:11:30.885Z,71.23
2023-03-19T01:12:26.013Z,71.13
2023-03-19T01:13:21.085Z,70.96
2023-03-19T01:14:16.217Z,70.80
2023-03-19T01:15:11.211Z,70.82
2023-03-19T01:16:06.242Z,70.86
2023-03-19T01:17:01.448Z,70.84
2023-03-19T01:17:56.448Z,70.69
2023-03-19T01:18:51.504Z,70.56
2023-03-19T01:19:46.736Z,70.54
2023-03-19T01:20:41.622Z,70.61
2023-03-19T01:21:36.693Z,70.56
2023-03-19T01:22:31.741Z,70.43
2023-03-19T01:23:26.785Z,70.31
2023-03-19T01:24:21.906Z,70.13
2023-03-19T01:25:17.277Z,70.21
2023-03-19T01:26:12.444Z,70.16
2023-03-19T01:27:07.725Z,70.17
2023-03-19T01:28:02.890Z,70.22
2023-03-19T01:28:58.215Z,70.11
2023-03-19T01:29:53.552Z,70.07
2023-03-19T01:30:48.652Z,70.04
2023-03-19T01:31:43.768Z,69.99
2023-03-19T01:32:39.086Z,69.89
2023-03-19T01:33:34.209Z,69.83
2023-03-19T01:34:29.565Z,69.69
2023-03-19T01:35:24.751Z,69.76
2023-03-19T01:36:19.839Z,69.86
2023-03-19T01:37:15.070Z,69.82
2023-03-19T01:38:10.274Z,69.79
2023-03-19T01:39:05.613Z,69.81
2023-03-19T01:40:00.825Z,69.85
2023-03-19T01:40:55.800Z,69.88
2023-03-19T01:41:50.979Z,69.75
2023-03-19T01:42:46.279Z,69.90
2023-03-19T01:43:41.568Z,69.94
2023-03-19T01:44:36.771Z,70.02
2023-03-19T01:45:32.098Z,70.17
2023-03-19T01:46:27.207Z,70.31
2023-03-19T01:47:22.336Z,70.34
2023-03-19T01:48:17.474Z,70.55
2023-03-19T01:49:12.688Z,70.58
2023-03-19T01:50:07.826Z,70.75
2023-03-19T01:51:03.289Z,70.86
2023-03-19T01:51:58.307Z,70.98
2023-03-19T01:52:53.485Z,71.14
2023-03-19T01:53:48.701Z,71.29
2023-03-19T01:54:43.876Z,71.52
2023-03-19T01:55:39.193Z,71.67
2023-03-19T01:56:34.274Z,71.99
2023-03-19T01:57:29.404Z,72.12
2023-03-19T01:58:25.991Z,72.20
2023-03-19T01:59:19.909Z,72.01
2023-03-19T02:00:15.074Z,71.81
2023-03-19T02:01:10.444Z,72.08
2023-03-19T02:02:05.472Z,72.57
2023-03-19T02:03:00.640Z,73.10
2023-03-19T02:03:55.696Z,73.43
2023-03-19T02:04:50.787Z,73.59
2023-03-19T02:05:45.908Z,73.87
2023-03-19T02:06:40.882Z,73.92
2023-03-19T02:07:35.908Z,74.13
2023-03-19T02:08:30.907Z,74.37
2023-03-19T02:09:25.939Z,74.51
2023-03-19T02:10:20.897Z,74.62
2023-03-19T02:11:16.022Z,74.64
2023-03-19T02:12:10.996Z,74.67
2023-03-19T02:13:06.170Z,74.80
2023-03-19T02:14:01.157Z,74.77
2023-03-19T02:14:56.285Z,74.75
2023-03-19T02:15:51.484Z,74.75
2023-03-19T02:16:46.883Z,74.63
2023-03-19T02:17:41.619Z,74.55
2023-03-19T02:18:36.851Z,74.52
2023-03-19T02:19:32.013Z,74.57
2023-03-19T02:20:27.129Z,74.45
2023-03-19T02:21:22.157Z,74.46
2023-03-19T02:22:17.253Z,74.56
2023-03-19T02:23:12.394Z,74.63
2023-03-19T02:24:07.469Z,74.55
2023-03-19T02:25:02.490Z,74.43
2023-03-19T02:25:57.595Z,74.26
2023-03-19T02:26:52.828Z,74.19
2023-03-19T02:27:47.791Z,74.16
2023-03-19T02:28:42.789Z,74.32
2023-03-19T02:29:37.794Z,74.47
2023-03-19T02:30:33.085Z,74.51
2023-03-19T02:31:28.193Z,74.54
2023-03-19T02:32:23.007Z,74.73
2023-03-19T02:33:18.119Z,74.78
2023-03-19T02:34:13.073Z,74.74
2023-03-19T02:35:08.187Z,74.78
2023-03-19T02:36:03.345Z,74.93
2023-03-19T02:36:58.588Z,75.05
2023-03-19T02:37:53.404Z,75.20
2023-03-19T02:38:48.503Z,75.29
2023-03-19T02:39:43.505Z,75.26
2023-03-19T02:40:38.536Z,75.33
2023-03-19T02:41:33.722Z,75.54
2023-03-19T02:42:28.671Z,75.63
2023-03-19T02:43:23.727Z,75.56
2023-03-19T02:44:18.783Z,75.50
2023-03-19T02:45:14.091Z,75.51
2023-03-19T02:46:09.151Z,75.53
2023-03-19T02:47:04.179Z,75.66
2023-03-19T02:47:59.229Z,75.61
2023-03-19T02:48:54.659Z,75.66
2023-03-19T02:49:49.817Z,75.78
2023-03-19T02:50:44.857Z,75.81
2023-03-19T02:51:40.094Z,75.80
2023-03-19T02:52:35.276Z,75.86
2023-03-19T02:53:30.475Z,76.05
2023-03-19T02:54:25.608Z,76.20
2023-03-19T02:55:20.701Z,76.47
2023-03-19T02:56:15.827Z,76.75
2023-03-19T02:57:11.169Z,76.96
2023-03-19T02:58:06.235Z,77.08
2023-03-19T02:59:01.214Z,77.22
2023-03-19T02:59:56.275Z,77.31
2023-03-19T03:00:51.472Z,77.50
2023-03-19T03:01:46.760Z,77.65
2023-03-19T03:02:41.759Z,77.93
2023-03-19T03:03:36.797Z,78.12
2023-03-19T03:04:31.883Z,78.16
2023-03-19T03:05:27.219Z,78.23
2023-03-19T03:06:22.556Z,78.16
2023-03-19T03:07:17.484Z,78.03
2023-03-19T03:08:12.696Z,77.93
2023-03-19T03:09:07.852Z,77.84
2023-03-19T03:10:02.906Z,77.84
2023-03-19T03:10:57.917Z,77.83
2023-03-19T03:11:53.016Z,77.96
2023-03-19T03:12:48.043Z,77.91
2023-03-19T03:13:43.093Z,77.84
2023-03-19T03:14:38.114Z,77.85
2023-03-19T03:15:33.291Z,77.95
2023-03-19T03:16:28.354Z,78.00
2023-03-19T03:17:23.518Z,77.87
2023-03-19T03:18:18.524Z,77.88
2023-03-19T03:19:13.669Z,77.96
2023-03-19T03:20:08.761Z,77.96
2023-03-19T03:21:04.043Z,77.57
2023-03-19T03:21:58.904Z,77.22
2023-03-19T03:22:54.041Z,77.12
2023-03-19T03:23:49.049Z,76.99
2023-03-19T03:24:44.181Z,76.86
2023-03-19T03:25:39.325Z,76.71
2023-03-19T03:26:34.751Z,76.30
2023-03-19T03:27:29.648Z,76.24
2023-03-19T03:28:28.422Z,76.08
2023-03-19T03:29:23.485Z,75.95
2023-03-19T03:30:18.662Z,75.81
2023-03-19T03:31:13.799Z,75.59
2023-03-19T03:32:08.787Z,75.47
2023-03-19T03:33:03.885Z,75.44
2023-03-19T03:33:58.981Z,75.37
2023-03-19T03:34:54.002Z,75.23
2023-03-19T03:35:48.996Z,75.11
2023-03-19T03:36:44.102Z,75.20
2023-03-19T03:37:39.092Z,74.78
2023-03-19T03:38:34.253Z,74.74
2023-03-19T03:39:29.230Z,74.39
2023-03-19T03:40:28.648Z,74.39
2023-03-19T03:41:23.926Z,74.10
2023-03-19T03:42:18.761Z,73.99
2023-03-19T03:43:13.792Z,74.04
2023-03-19T03:44:08.863Z,74.30
2023-03-19T03:45:03.864Z,74.23
2023-03-19T03:45:59.012Z,74.27
2023-03-19T03:46:54.104Z,74.28
2023-03-19T03:47:49.031Z,74.25
2023-03-19T03:48:44.057Z,74.28
2023-03-19T03:49:39.169Z,74.36
2023-03-19T03:50:34.445Z,74.41
2023-03-19T03:51:29.696Z,74.47
2023-03-19T03:52:24.859Z,74.51
2023-03-19T03:53:20.050Z,74.45
2023-03-19T03:54:15.795Z,74.46
2023-03-19T03:55:11.124Z,74.55
2023-03-19T03:56:07.128Z,74.83
2023-03-19T03:57:03.436Z,74.81
2023-03-19T03:57:57.286Z,74.59
2023-03-19T03:58:53.177Z,74.65
2023-03-19T03:59:48.330Z,74.50
2023-03-19T04:00:43.759Z,74.56
2023-03-19T04:01:39.808Z,74.62
2023-03-19T04:02:35.108Z,74.79
2023-03-19T04:03:30.773Z,74.77
2023-03-19T04:04:25.944Z,74.58
2023-03-19T04:05:21.564Z,74.47
2023-03-19T04:06:17.071Z,74.45
2023-03-19T04:07:12.256Z,74.61
2023-03-19T04:08:08.162Z,74.76
2023-03-19T04:09:03.314Z,74.93
2023-03-19T04:09:58.752Z,74.98
2023-03-19T04:10:54.388Z,74.89
2023-03-19T04:11:51.435Z,74.85
2023-03-19T04:12:44.734Z,75.05
2023-03-19T04:13:39.787Z,75.07
2023-03-19T04:14:34.838Z,75.13
2023-03-19T04:15:30.092Z,75.26
2023-03-19T04:16:25.051Z,75.19
2023-03-19T04:17:20.064Z,75.13
2023-03-19T04:18:15.098Z,75.15
2023-03-19T04:19:10.186Z,75.25
2023-03-19T04:20:05.375Z,75.06
2023-03-19T04:21:00.326Z,75.11
2023-03-19T04:21:55.360Z,75.10
2023-03-19T04:22:50.362Z,75.23
2023-03-19T04:23:45.392Z,75.57
2023-03-19T04:24:40.453Z,75.81
2023-03-19T04:25:35.786Z,76.07
2023-03-19T04:26:30.685Z,76.27
2023-03-19T04:27:25.747Z,76.42
2023-03-19T04:28:20.827Z,76.84
2023-03-19T04:29:15.897Z,76.91
2023-03-19T04:30:15.558Z,77.09
2023-03-19T04:31:10.477Z,77.15
2023-03-19T04:32:05.551Z,77.20
2023-03-19T04:33:00.638Z,77.19
2023-03-19T04:33:55.705Z,77.34
2023-03-19T04:34:50.731Z,77.54
2023-03-19T04:35:45.958Z,77.76
2023-03-19T04:36:40.869Z,77.79
2023-03-19T04:37:35.952Z,77.92
2023-03-19T04:38:30.982Z,78.10
2023-03-19T04:39:26.045Z,78.32
2023-03-19T04:40:21.112Z,78.42
2023-03-19T04:41:16.439Z,78.60
2023-03-19T04:42:11.226Z,78.76
2023-03-19T04:43:06.366Z,78.92
2023-03-19T04:44:01.466Z,79.07
2023-03-19T04:44:56.522Z,79.32
2023-03-19T04:45:51.600Z,79.52
2023-03-19T04:46:47.368Z,79.75
2023-03-19T04:47:42.493Z,79.96
2023-03-19T04:48:37.945Z,80.35
2023-03-19T04:49:32.966Z,80.74
2023-03-19T04:50:28.285Z,81.06
2023-03-19T04:51:23.478Z,81.22
2023-03-19T04:52:19.859Z,81.59
2023-03-19T04:53:14.992Z,81.97
2023-03-19T04:54:10.233Z,82.50
2023-03-19T04:55:09.572Z,82.74
2023-03-19T04:56:05.042Z,82.83
2023-03-19T04:57:00.099Z,82.89
2023-03-19T04:57:55.326Z,83.09
2023-03-19T04:58:50.332Z,83.08
2023-03-19T04:59:45.487Z,83.25
2023-03-19T05:00:40.540Z,83.49
2023-03-19T05:01:41.677Z,83.84
2023-03-19T05:02:36.568Z,84.20
2023-03-19T05:03:31.792Z,84.52
2023-03-19T05:04:26.840Z,84.64
2023-03-19T05:05:21.975Z,84.74
2023-03-19T05:06:17.099Z,85.05
2023-03-19T05:07:12.208Z,85.43
2023-03-19T05:08:07.312Z,85.62
2023-03-19T05:09:02.712Z,85.94
2023-03-19T05:09:59.025Z,86.22
2023-03-19T05:10:54.302Z,86.39
2023-03-19T05:11:50.091Z,86.60
2023-03-19T05:12:45.329Z,86.72
2023-03-19T05:13:40.476Z,86.90
2023-03-19T05:14:36.282Z,87.05
2023-03-19T05:15:31.407Z,87.19
2023-03-19T05:16:27.447Z,87.34
2023-03-19T05:17:22.456Z,87.39
2023-03-19T05:18:17.811Z,87.43
2023-03-19T05:19:13.375Z,87.45
2023-03-19T05:20:08.585Z,87.48
2023-03-19T05:21:03.869Z,87.49
2023-03-19T05:22:00.037Z,87.54
2023-03-19T05:22:55.177Z,87.43
2023-03-19T05:23:51.048Z,87.47
2023-03-19T05:24:46.232Z,87.42
2023-03-19T05:25:41.422Z,87.45
2023-03-19T05:26:37.189Z,87.49
2023-03-19T05:27:32.371Z,87.56
2023-03-19T05:28:28.271Z,87.74
2023-03-19T05:29:23.321Z,87.87
2023-03-19T05:30:18.517Z,87.72
2023-03-19T05:31:14.667Z,87.68
2023-03-19T05:32:09.563Z,87.61
2023-03-19T05:33:05.057Z,87.67
2023-03-19T05:34:01.090Z,87.82
2023-03-19T05:34:56.423Z,88.01
2023-03-19T05:35:52.220Z,88.14
2023-03-19T05:36:47.977Z,88.28
2023-03-19T05:37:42.784Z,88.39
2023-03-19T05:38:38.594Z,88.57
2023-03-19T05:39:33.829Z,88.64
2023-03-19T05:40:29.645Z,88.75
2023-03-19T05:41:24.982Z,88.81
2023-03-19T05:42:20.212Z,88.83
2023-03-19T05:43:15.871Z,88.85
2023-03-19T05:44:11.249Z,88.92
2023-03-19T05:45:06.589Z,88.91
2023-03-19T05:46:02.871Z,88.94
2023-03-19T05:46:58.320Z,88.88
2023-03-19T05:47:53.897Z,88.84
2023-03-19T05:48:49.145Z,88.74
2023-03-19T05:49:44.447Z,88.77
2023-03-19T05:50:40.249Z,88.76
2023-03-19T05:51:35.713Z,88.75
2023-03-19T05:52:31.290Z,88.71
2023-03-19T05:53:26.663Z,88.72
2023-03-19T05:54:21.954Z,88.86
2023-03-19T05:55:17.308Z,89.10
2023-03-19T05:56:13.654Z,89.29
2023-03-19T05:57:09.107Z,89.35
2023-03-19T05:58:04.663Z,89.41
2023-03-19T05:58:59.959Z,89.48
2023-03-19T05:59:55.202Z,89.55
2023-03-19T06:00:51.067Z,89.57
2023-03-19T06:01:46.411Z,89.50
2023-03-19T06:02:42.241Z,89.41
2023-03-19T06:03:37.427Z,89.34
2023-03-19T06:04:32.842Z,89.40
2023-03-19T06:05:28.674Z,89.50
2023-03-19T06:06:23.940Z,89.40
2023-03-19T06:07:19.498Z,89.36
2023-03-19T06:08:15.490Z,89.39
2023-03-19T06:09:10.735Z,89.41
2023-03-19T06:10:06.252Z,89.37
2023-03-19T06:11:01.405Z,89.42
2023-03-19T06:11:58.904Z,89.50
2023-03-19T06:12:54.213Z,89.69
2023-03-19T06:13:49.538Z,89.78
2023-03-19T06:14:44.829Z,89.81
2023-03-19T06:15:41.146Z,89.83
2023-03-19T06:16:36.426Z,89.87
2023-03-19T06:17:31.760Z,89.85
2023-03-19T06:18:27.489Z,89.86
2023-03-19T06:19:22.805Z,89.93
2023-03-19T06:20:18.098Z,89.96
2023-03-19T06:21:13.439Z,89.99
2023-03-19T06:22:08.733Z,89.99
2023-03-19T06:23:04.361Z,89.97
2023-03-19T06:24:00.415Z,89.96
2023-03-19T06:24:56.236Z,89.97
2023-03-19T06:25:51.121Z,89.97
2023-03-19T06:26:50.500Z,89.87
2023-03-19T06:27:45.381Z,89.86
2023-03-19T06:28:40.717Z,89.86
2023-03-19T06:29:36.037Z,89.90
2023-03-19T06:30:31.591Z,89.89
2023-03-19T06:31:26.117Z,89.87
2023-03-19T06:32:21.243Z,89.79
2023-03-19T06:33:16.488Z,89.79
2023-03-19T06:34:11.370Z,89.86
2023-03-19T06:35:06.478Z,89.82
2023-03-19T06:36:01.670Z,89.75
2023-03-19T06:36:56.531Z,89.83
2023-03-19T06:37:51.836Z,89.96
2023-03-19T06:38:46.643Z,89.92
2023-03-19T06:39:41.748Z,89.91
2023-03-19T06:40:36.830Z,89.89
2023-03-19T06:41:31.967Z,89.85
2023-03-19T06:42:27.284Z,89.76
2023-03-19T06:43:22.390Z,89.73
2023-03-19T06:44:17.744Z,89.70
2023-03-19T06:45:13.114Z,89.71
2023-03-19T06:46:10.867Z,89.66
2023-03-19T06:47:03.912Z,89.46
2023-03-19T06:47:59.568Z,89.39
2023-03-19T06:48:54.693Z,89.30
2023-03-19T06:49:50.050Z,89.27
2023-03-19T06:50:45.443Z,89.35
2023-03-19T06:51:40.729Z,89.39
2023-03-19T06:52:36.088Z,89.48
2023-03-19T06:53:31.405Z,89.57
2023-03-19T06:54:26.710Z,89.62
2023-03-19T06:55:22.009Z,89.62
2023-03-19T06:56:17.359Z,89.65
2023-03-19T06:57:12.682Z,89.66
2023-03-19T06:58:07.687Z,89.67
2023-03-19T06:59:02.707Z,89.72
2023-03-19T06:59:57.785Z,89.74
2023-03-19T07:00:52.909Z,89.80
2023-03-19T07:01:47.992Z,89.80
2023-03-19T07:02:43.053Z,89.81
2023-03-19T07:03:38.784Z,89.86
2023-03-19T07:04:33.806Z,89.96
2023-03-19T07:05:28.895Z,90.01
2023-03-19T07:06:24.026Z,90.02
2023-03-19T07:07:19.307Z,90.12
2023-03-19T07:08:14.124Z,90.14
2023-03-19T07:09:09.200Z,90.12
2023-03-19T07:10:04.263Z,90.12
2023-03-19T07:10:59.525Z,90.27
2023-03-19T07:11:55.041Z,90.26
2023-03-19T07:12:50.304Z,90.24
2023-03-19T07:13:45.618Z,90.28
2023-03-19T07:14:41.111Z,90.30
2023-03-19T07:15:36.286Z,90.25
2023-03-19T07:16:31.564Z,90.22
2023-03-19T07:17:26.345Z,90.12
2023-03-19T07:18:21.435Z,90.11
2023-03-19T07:19:20.150Z,90.08
2023-03-19T07:20:15.458Z,90.09
2023-03-19T07:21:10.766Z,90.07
2023-03-19T07:22:06.166Z,90.05
2023-03-19T07:23:01.482Z,90.05
2023-03-19T07:23:56.903Z,90.09
2023-03-19T07:24:52.084Z,90.06
2023-03-19T07:25:47.647Z,90.04
2023-03-19T07:26:43.082Z,90.02
2023-03-19T07:27:38.315Z,90.01
2023-03-19T07:28:33.705Z,90.02
2023-03-19T07:29:29.075Z,90.02
2023-03-19T07:30:24.453Z,90.00
2023-03-19T07:31:20.451Z,90.07
2023-03-19T07:32:16.053Z,90.09
2023-03-19T07:33:10.923Z,90.14
2023-03-19T07:34:05.912Z,89.99
2023-03-19T07:35:01.017Z,89.97
2023-03-19T07:35:56.190Z,90.09
2023-03-19T07:36:51.296Z,90.10
2023-03-19T07:37:46.196Z,90.09
2023-03-19T07:38:41.155Z,90.11
2023-03-19T07:39:36.280Z,90.18
2023-03-19T07:40:31.345Z,90.19
2023-03-19T07:41:26.312Z,90.13
2023-03-19T07:42:22.944Z,90.08
2023-03-19T07:43:17.913Z,90.06
2023-03-19T07:44:12.995Z,90.07
2023-03-19T07:45:08.111Z,90.05
2023-03-19T07:46:03.966Z,90.14
2023-03-19T07:46:59.568Z,90.00
2023-03-19T07:47:54.680Z,89.96
2023-03-19T07:48:50.033Z,89.85
2023-03-19T07:49:45.844Z,89.79
2023-03-19T07:50:41.207Z,89.55
2023-03-19T07:51:36.607Z,89.21
2023-03-19T07:52:32.002Z,89.05
2023-03-19T07:53:27.416Z,88.97
2023-03-19T07:54:22.862Z,88.82
2023-03-19T07:55:18.433Z,88.72
2023-03-19T07:56:14.051Z,88.80
2023-03-19T07:57:09.349Z,88.69
2023-03-19T07:58:04.953Z,88.69
2023-03-19T07:59:00.370Z,88.65
2023-03-19T07:59:55.828Z,88.66
2023-03-19T08:00:51.196Z,88.79
2023-03-19T08:01:46.750Z,88.75
2023-03-19T08:02:42.293Z,88.61
2023-03-19T08:03:37.597Z,88.47
2023-03-19T08:04:32.805Z,88.62
2023-03-19T08:05:27.655Z,88.63
2023-03-19T08:06:22.844Z,88.67
2023-03-19T08:07:17.860Z,88.56
2023-03-19T08:08:12.968Z,88.60
2023-03-19T08:09:08.007Z,88.60
2023-03-19T08:10:03.094Z,88.53
2023-03-19T08:10:58.243Z,88.52
2023-03-19T08:11:53.318Z,88.52
2023-03-19T08:12:48.642Z,88.57
2023-03-19T08:13:43.489Z,88.57
2023-03-19T08:14:38.602Z,88.61
2023-03-19T08:15:33.671Z,88.40
2023-03-19T08:16:28.896Z,88.16
2023-03-19T08:17:23.662Z,87.91
2023-03-19T08:18:18.977Z,87.58
2023-03-19T08:19:14.479Z,87.48
2023-03-19T08:20:09.857Z,87.40
2023-03-19T08:21:05.582Z,87.39
2023-03-19T08:22:00.497Z,87.46
2023-03-19T08:22:55.541Z,87.11
2023-03-19T08:23:50.706Z,86.76
2023-03-19T08:24:45.776Z,86.49
2023-03-19T08:25:40.806Z,86.58
2023-03-19T08:26:36.016Z,86.60
2023-03-19T08:27:31.041Z,86.48
2023-03-19T08:28:26.068Z,86.67
2023-03-19T08:29:21.133Z,87.05
2023-03-19T08:30:16.170Z,86.79
2023-03-19T08:31:11.465Z,86.28
2023-03-19T08:32:06.286Z,85.80
2023-03-19T08:33:01.459Z,84.85
2023-03-19T08:33:56.361Z,84.29
2023-03-19T08:34:54.021Z,84.49
2023-03-19T08:35:49.563Z,84.38
2023-03-19T08:36:44.729Z,83.71
2023-03-19T08:37:40.404Z,84.07
2023-03-19T08:38:35.755Z,84.38
2023-03-19T08:39:31.212Z,84.06
2023-03-19T08:40:27.018Z,83.69
2023-03-19T08:41:22.264Z,83.68
2023-03-19T08:42:17.687Z,83.77
2023-03-19T08:43:13.119Z,83.44
2023-03-19T08:44:08.556Z,83.36
2023-03-19T08:45:03.984Z,83.44
2023-03-19T08:45:59.626Z,83.48
2023-03-19T08:46:55.055Z,83.47
2023-03-19T08:47:50.497Z,83.42
2023-03-19T08:48:45.580Z,83.67
2023-03-19T08:49:40.641Z,84.04
2023-03-19T08:50:36.406Z,84.29
2023-03-19T08:51:30.962Z,84.29
2023-03-19T08:52:26.045Z,84.29
2023-03-19T08:53:21.183Z,84.19
2023-03-19T08:54:16.147Z,83.83
2023-03-19T08:55:11.214Z,83.06
2023-03-19T08:56:06.496Z,83.11
2023-03-19T08:57:01.515Z,83.39
2023-03-19T08:57:58.212Z,83.42
2023-03-19T08:58:53.306Z,83.30
2023-03-19T08:59:48.368Z,83.19
2023-03-19T09:00:43.665Z,82.58
2023-03-19T09:01:39.446Z,82.43
2023-03-19T09:02:34.925Z,82.70
2023-03-19T09:03:30.425Z,82.78
2023-03-19T09:04:25.957Z,82.63
2023-03-19T09:05:21.420Z,82.73
2023-03-19T09:06:17.139Z,82.68
2023-03-19T09:07:12.226Z,82.08
2023-03-19T09:08:07.831Z,82.36
2023-03-19T09:09:03.213Z,81.54
2023-03-19T09:09:58.831Z,81.31
2023-03-19T09:10:54.534Z,80.94
2023-03-19T09:11:49.838Z,79.65
2023-03-19T09:12:47.386Z,78.94
2023-03-19T09:13:40.795Z,78.72
2023-03-19T09:14:35.894Z,78.68
2023-03-19T09:15:31.209Z,79.19
2023-03-19T09:16:26.144Z,78.51
2023-03-19T09:17:21.152Z,77.96
2023-03-19T09:18:16.212Z,78.63
2023-03-19T09:19:11.303Z,78.89
2023-03-19T09:20:06.300Z,77.64
2023-03-19T09:21:01.514Z,78.19
2023-03-19T09:21:56.353Z,78.35
2023-03-19T09:22:51.360Z,77.98
2023-03-19T09:23:46.349Z,77.29
2023-03-19T09:24:41.562Z,77.22
2023-03-19T09:25:36.877Z,76.47
2023-03-19T09:26:31.723Z,77.53
2023-03-19T09:27:27.242Z,75.70
2023-03-19T09:28:22.808Z,73.88
2023-03-19T09:29:18.249Z,74.00
2023-03-19T09:30:13.746Z,72.88
2023-03-19T09:31:09.549Z,73.90
2023-03-19T09:32:04.805Z,73.50
2023-03-19T09:33:00.268Z,73.48
2023-03-19T09:33:55.294Z,72.25
2023-03-19T09:34:50.271Z,70.83
2023-03-19T09:35:45.436Z,70.95
2023-03-19T09:36:41.538Z,71.09
2023-03-19T09:37:36.525Z,70.62
2023-03-19T09:38:31.634Z,69.42
2023-03-19T09:39:26.665Z,69.17
2023-03-19T09:40:21.932Z,68.57
2023-03-19T09:41:16.797Z,68.66
2023-03-19T09:42:11.884Z,68.26
2023-03-19T09:43:06.984Z,67.96
2023-03-19T09:44:01.968Z,67.51
2023-03-19T09:44:57.089Z,68.01
2023-03-19T09:45:52.341Z,68.06
2023-03-19T09:46:48.553Z,67.73
2023-03-19T09:47:43.819Z,67.94
2023-03-19T09:48:39.456Z,68.47
2023-03-19T09:49:34.869Z,69.85
2023-03-19T09:50:30.408Z,69.30
2023-03-19T09:51:26.120Z,69.01
2023-03-19T09:52:21.509Z,68.21
2023-03-19T09:53:16.904Z,67.32
2023-03-19T09:54:12.320Z,68.24
2023-03-19T09:55:07.872Z,68.81
2023-03-19T09:56:03.456Z,67.61
2023-03-19T09:56:58.736Z,67.75
2023-03-19T09:57:54.458Z,67.26
2023-03-19T09:58:50.016Z,67.83
2023-03-19T09:59:45.310Z,68.08
2023-03-19T10:00:40.820Z,66.52
2023-03-19T10:01:36.431Z,65.91
2023-03-19T10:02:31.676Z,64.63
2023-03-19T10:03:27.224Z,63.76
2023-03-19T10:04:22.788Z,64.53
2023-03-19T10:05:18.209Z,64.36
2023-03-19T10:06:13.896Z,64.06
2023-03-19T10:07:09.297Z,63.75
2023-03-19T10:08:04.843Z,61.91
2023-03-19T10:09:01.197Z,62.40
2023-03-19T10:09:56.700Z,61.58
2023-03-19T10:10:52.371Z,61.24
2023-03-19T10:11:47.883Z,61.80
2023-03-19T10:12:45.172Z,61.40
2023-03-19T10:13:40.583Z,60.49
2023-03-19T10:14:36.097Z,59.69
2023-03-19T10:15:31.761Z,58.59
2023-03-19T10:16:27.407Z,56.51
2023-03-19T10:17:22.631Z,57.30
2023-03-19T10:18:18.112Z,58.13
2023-03-19T10:19:13.643Z,59.02
2023-03-19T10:20:09.444Z,59.17
2023-03-19T10:21:05.159Z,59.12
2023-03-19T10:22:00.545Z,59.66
2023-03-19T10:22:55.616Z,59.45
2023-03-19T10:23:50.763Z,59.01
2023-03-19T10:24:45.820Z,58.30
2023-03-19T10:25:41.641Z,57.92
2023-03-19T10:26:36.118Z,56.44
2023-03-19T10:27:30.983Z,56.54
2023-03-19T10:28:25.978Z,57.06
2023-03-19T10:29:21.102Z,57.12
2023-03-19T10:30:16.110Z,57.54
2023-03-19T10:31:11.175Z,56.55
2023-03-19T10:32:06.200Z,56.11
2023-03-19T10:33:01.344Z,56.53
2023-03-19T10:33:56.413Z,56.52
2023-03-19T10:34:51.561Z,56.80
2023-03-19T10:35:49.009Z,55.63
2023-03-19T10:36:44.643Z,55.06
2023-03-19T10:37:39.763Z,55.24
2023-03-19T10:38:35.319Z,55.33
2023-03-19T10:39:30.847Z,55.34
2023-03-19T10:40:26.518Z,55.71
2023-03-19T10:41:22.102Z,54.39
2023-03-19T10:42:17.300Z,52.62
2023-03-19T10:43:12.856Z,50.88
2023-03-19T10:44:08.342Z,50.66
2023-03-19T10:45:03.937Z,51.74
2023-03-19T10:45:59.540Z,51.60
2023-03-19T10:46:54.950Z,50.54
2023-03-19T10:47:50.137Z,51.01
2023-03-19T10:48:45.620Z,50.90
2023-03-19T10:49:40.711Z,51.32
2023-03-19T10:50:35.783Z,51.68
2023-03-19T10:51:30.980Z,51.32
2023-03-19T10:52:26.019Z,51.06
2023-03-19T10:53:21.051Z,50.54
2023-03-19T10:54:16.124Z,50.71
2023-03-19T10:55:11.152Z,50.95
2023-03-19T10:56:06.172Z,50.80
2023-03-19T10:57:01.572Z,51.64
2023-03-19T10:57:56.490Z,51.75
2023-03-19T10:58:52.658Z,52.16
2023-03-19T10:59:47.698Z,52.48
2023-03-19T11:00:42.808Z,53.19
2023-03-19T11:01:37.855Z,53.70
2023-03-19T11:02:34.128Z,52.57
2023-03-19T11:03:29.479Z,52.13
2023-03-19T11:04:24.957Z,51.86
2023-03-19T11:05:20.364Z,51.65
2023-03-19T11:06:15.982Z,50.49
2023-03-19T11:07:11.526Z,51.12
2023-03-19T11:08:06.873Z,51.99
2023-03-19T11:09:02.231Z,51.49
2023-03-19T11:09:57.677Z,51.24
2023-03-19T11:10:53.182Z,49.56
2023-03-19T11:11:50.875Z,48.76
2023-03-19T11:12:44.166Z,47.70
2023-03-19T11:13:39.812Z,47.86
2023-03-19T11:14:34.889Z,48.79
2023-03-19T11:15:29.940Z,47.68
2023-03-19T11:16:25.022Z,47.28
2023-03-19T11:17:20.240Z,45.67
2023-03-19T11:18:15.174Z,46.43
2023-03-19T11:19:10.234Z,47.08
2023-03-19T11:20:05.271Z,47.07
2023-03-19T11:21:00.357Z,47.43
2023-03-19T11:21:55.557Z,48.16
2023-03-19T11:22:50.429Z,49.70
2023-03-19T11:23:45.491Z,49.68
2023-03-19T11:24:40.581Z,49.30
2023-03-19T11:25:36.012Z,49.52
2023-03-19T11:26:30.704Z,48.09
2023-03-19T11:27:25.952Z,47.52
2023-03-19T11:28:22.512Z,47.01
2023-03-19T11:29:16.209Z,47.74
2023-03-19T11:30:11.660Z,48.23
2023-03-19T11:31:07.021Z,47.86
2023-03-19T11:32:18.611Z,47.67
2023-03-19T11:32:58.898Z,47.90
2023-03-19T11:33:53.131Z,48.48
2023-03-19T11:34:48.709Z,47.95
2023-03-19T11:35:44.400Z,47.42
2023-03-19T11:36:39.653Z,47.75
2023-03-19T11:37:35.277Z,48.39
2023-03-19T11:38:30.623Z,48.01
2023-03-19T11:39:26.080Z,48.02
2023-03-19T11:40:24.728Z,48.20
2023-03-19T11:41:17.499Z,48.31
2023-03-19T11:42:12.763Z,48.63
2023-03-19T11:43:07.698Z,48.52
2023-03-19T11:44:02.827Z,48.31
2023-03-19T11:44:57.717Z,48.07
2023-03-19T11:45:52.803Z,47.58
2023-03-19T11:46:48.100Z,47.87
2023-03-19T11:47:43.039Z,47.78
2023-03-19T11:48:38.215Z,47.94
2023-03-19T11:49:33.347Z,48.17
2023-03-19T11:50:28.394Z,48.61
2023-03-19T11:51:23.813Z,48.72
2023-03-19T11:52:18.746Z,48.88